Time;durP1;ratioP1;P1;durP2;ratioP2;P2;SDS_P1;SDS_P2;PMS_P1;PMS_P2;Temp;Humidity;BMP_temperature;BMP_pressure;BME280_temperature;BME280_humidity;BME280_pressure;Samples;Min_cycle;Max_cycle;Signal;HPM_P1;HPM_P2
2022/07/29 00:01:06;;;;;;;;;;;21.00;99.90;;;;;;5094656;28;19953;-77
2022/07/29 00:03:31;;;;;;;;;;;21.00;99.90;;;;;;5094667;28;19908;-76
2022/07/29 00:05:57;;;;;;;;;;;21.00;99.90;;;;;;5094237;28;19919;-77
2022/07/29 00:08:23;;;;;;;;;;;20.90;99.90;;;;;;5094464;28;19924;-76
2022/07/29 00:10:48;;;;;;;;;;;20.90;99.90;;;;;;5094500;28;19908;-76
2022/07/29 00:13:14;;;;;;;;;;;20.90;99.90;;;;;;5094437;28;19912;-76
2022/07/29 00:15:40;;;;;;;;;;;20.90;99.90;;;;;;5094207;28;19908;-77
2022/07/29 00:18:05;;;;;;;;;;;20.90;99.90;;;;;;5094233;28;19908;-77
2022/07/29 00:20:31;;;;;;;;;;;20.90;99.90;;;;;;5094329;28;20008;-77
2022/07/29 00:22:56;;;;;;;;;;;21.00;99.90;;;;;;5094341;28;19912;-77
2022/07/29 00:25:22;;;;;;;;;;;21.00;99.90;;;;;;5094160;28;19944;-76
2022/07/29 00:27:48;;;;;;;;;;;21.00;99.90;;;;;;5093849;28;19909;-78
2022/07/29 00:30:13;;;;;;;;;;;21.00;99.90;;;;;;5094536;28;19940;-76
2022/07/29 00:32:39;;;;;;;;;;;21.00;99.90;;;;;;5093939;28;19908;-77
2022/07/29 00:37:49;;;;;;;;;;;21.00;99.90;;;;;;5095359;28;19970;-77
2022/07/29 00:40:14;;;;;;;;;;;21.00;99.90;;;;;;5093918;28;19912;-76
2022/07/29 00:42:47;;;;;;;;;;;21.00;99.90;;;;;;5093913;28;19961;-77
2022/07/29 00:45:13;;;;;;;;;;;21.00;99.90;;;;;;5093861;28;20409;-77
2022/07/29 00:47:39;;;;;;;;;;;21.00;99.90;;;;;;5093496;28;19908;-77
2022/07/29 00:50:05;;;;;;;;;;;20.90;99.90;;;;;;5093846;28;20435;-77
2022/07/29 00:52:32;;;;;;;;;;;20.90;99.90;;;;;;5093740;28;19930;-78
2022/07/29 00:54:57;;;;;;;;;;;20.90;99.90;;;;;;5093815;28;19908;-78
2022/07/29 00:57:23;;;;;;;;;;;20.80;99.90;;;;;;5093584;28;19919;-77
2022/07/29 00:59:49;;;;;;;;;;;20.80;99.90;;;;;;5093653;28;19940;-77
2022/07/29 01:02:14;;;;;;;;;;;20.80;99.90;;;;;;5094075;28;19929;-77
2022/07/29 01:04:40;;;;;;;;;;;20.70;99.90;;;;;;5093850;28;19990;-77
2022/07/29 01:07:06;;;;;;;;;;;20.70;99.90;;;;;;5093279;28;19912;-77
2022/07/29 01:09:33;;;;;;;;;;;20.70;99.90;;;;;;5093594;28;20299;-77
2022/07/29 01:11:59;;;;;;;;;;;20.60;99.90;;;;;;5093494;28;19915;-77
2022/07/29 01:14:25;;;;;;;;;;;20.60;99.90;;;;;;5093328;28;19914;-77
2022/07/29 01:16:55;;;;;;;;;;;20.60;99.90;;;;;;5093058;28;19908;-76
2022/07/29 01:19:39;;;;;;;;;;;20.60;99.90;;;;;;5093441;28;19998;-77
2022/07/29 01:22:23;;;;;;;;;;;20.60;99.90;;;;;;5093216;28;20468;-76
2022/07/29 01:25:00;;;;;;;;;;;20.60;99.90;;;;;;5093218;28;19916;-77
2022/07/29 01:27:25;;;;;;;;;;;20.60;99.90;;;;;;5092790;28;19912;-77
2022/07/29 01:29:56;;;;;;;;;;;20.60;99.90;;;;;;5092966;28;19915;-77
2022/07/29 01:32:25;;;;;;;;;;;20.60;99.90;;;;;;5093156;28;20008;-77
2022/07/29 01:34:57;;;;;;;;;;;20.60;99.90;;;;;;5092909;28;20282;-76
2022/07/29 01:37:28;;;;;;;;;;;20.60;99.90;;;;;;5092638;28;19914;-77
2022/07/29 01:39:55;;;;;;;;;;;20.60;99.90;;;;;;5092988;28;19934;-76
2022/07/29 01:42:27;;;;;;;;;;;20.60;99.90;;;;;;5092692;28;20309;-77
2022/07/29 01:45:01;;;;;;;;;;;20.60;99.90;;;;;;5092620;28;19931;-77
2022/07/29 01:47:32;;;;;;;;;;;20.60;99.90;;;;;;5092299;28;19966;-77
2022/07/29 01:50:00;;;;;;;;;;;20.60;99.90;;;;;;5092904;28;20354;-78
2022/07/29 01:52:36;;;;;;;;;;;20.50;99.90;;;;;;5092464;28;19908;-76
2022/07/29 01:55:11;;;;;;;;;;;20.50;99.90;;;;;;5092514;28;19943;-77
2022/07/29 01:57:38;;;;;;;;;;;20.50;99.90;;;;;;5092246;28;19913;-77
2022/07/29 02:00:05;;;;;;;;;;;20.50;99.90;;;;;;5092477;28;19930;-76
2022/07/29 02:02:32;;;;;;;;;;;20.50;99.90;;;;;;5092270;28;20380;-76
2022/07/29 02:04:59;;;;;;;;;;;20.50;99.90;;;;;;5092386;28;20015;-77
2022/07/29 02:07:26;;;;;;;;;;;20.50;99.90;;;;;;5091843;28;19912;-77
2022/07/29 02:09:53;;;;;;;;;;;20.50;99.90;;;;;;5091363;28;19915;-76
2022/07/29 02:12:19;;;;;;;;;;;20.50;99.90;;;;;;5092188;28;19908;-77
2022/07/29 02:14:47;;;;;;;;;;;20.40;99.90;;;;;;5092008;28;19908;-77
2022/07/29 02:17:13;;;;;;;;;;;20.40;99.90;;;;;;5091854;28;19915;-77
2022/07/29 02:19:40;;;;;;;;;;;20.40;99.90;;;;;;5091955;28;20034;-77
2022/07/29 02:22:06;;;;;;;;;;;20.40;99.90;;;;;;5091926;28;19908;-77
2022/07/29 02:24:33;;;;;;;;;;;20.40;99.90;;;;;;5092179;28;20417;-77
2022/07/29 02:26:59;;;;;;;;;;;20.30;99.90;;;;;;5106537;28;20045;-76
2022/07/29 02:29:26;;;;;;;;;;;20.40;99.90;;;;;;5111860;28;19908;-77
2022/07/29 02:31:52;;;;;;;;;;;20.40;99.90;;;;;;5112171;28;19915;-76
2022/07/29 02:34:19;;;;;;;;;;;20.40;99.90;;;;;;5112164;28;20367;-76
2022/07/29 02:36:45;;;;;;;;;;;20.40;99.90;;;;;;5111710;28;19908;-76
2022/07/29 02:39:11;;;;;;;;;;;20.40;99.90;;;;;;5111958;28;19930;-77
2022/07/29 02:41:42;;;;;;;;;;;20.30;99.90;;;;;;5112156;28;20309;-77
2022/07/29 02:44:15;;;;;;;;;;;20.30;99.90;;;;;;5112295;28;20419;-76
2022/07/29 02:46:43;;;;;;;;;;;20.20;99.90;;;;;;5111531;28;19911;-77
2022/07/29 02:49:13;;;;;;;;;;;20.10;99.90;;;;;;5111922;28;20308;-77
2022/07/29 02:51:43;;;;;;;;;;;20.10;99.90;;;;;;5111810;28;19965;-76
2022/07/29 02:54:10;;;;;;;;;;;20.10;99.90;;;;;;5111896;28;20362;-76
2022/07/29 02:56:37;;;;;;;;;;;20.10;99.90;;;;;;5111543;28;19919;-78
2022/07/29 02:59:05;;;;;;;;;;;20.00;99.90;;;;;;5111735;28;19961;-78
2022/07/29 03:01:32;;;;;;;;;;;19.90;99.90;;;;;;5111721;28;19963;-77
2022/07/29 03:04:00;;;;;;;;;;;19.90;99.90;;;;;;5111619;28;19908;-77
2022/07/29 03:06:27;;;;;;;;;;;20.00;99.90;;;;;;5111271;28;19912;-78
2022/07/29 03:08:53;;;;;;;;;;;20.00;99.90;;;;;;5111604;28;19964;-77
2022/07/29 03:11:19;;;;;;;;;;;20.00;99.90;;;;;;5111552;28;19908;-77
2022/07/29 03:13:45;;;;;;;;;;;20.00;99.90;;;;;;5111566;28;19960;-77
2022/07/29 03:16:11;;;;;;;;;;;20.00;99.90;;;;;;5111407;28;19907;-77
2022/07/29 03:18:37;;;;;;;;;;;20.00;99.90;;;;;;5111227;28;19912;-77
2022/07/29 03:21:03;;;;;;;;;;;19.90;99.90;;;;;;5111354;28;19912;-77
2022/07/29 03:23:28;;;;;;;;;;;19.90;99.90;;;;;;5111388;28;20305;-77
2022/07/29 03:25:54;;;;;;;;;;;19.90;99.90;;;;;;5111084;28;19916;-76
2022/07/29 03:28:20;;;;;;;;;;;19.90;99.90;;;;;;5111166;28;19908;-77
2022/07/29 03:30:46;;;;;;;;;;;19.80;99.90;;;;;;5111502;28;20004;-78
2022/07/29 03:33:12;;;;;;;;;;;19.60;99.90;;;;;;5111170;28;19907;-77
2022/07/29 03:35:38;;;;;;;;;;;19.60;99.90;;;;;;5111158;28;20002;-77
2022/07/29 03:38:03;;;;;;;;;;;19.60;99.90;;;;;;5111246;28;20359;-78
2022/07/29 03:40:38;;;;;;;;;;;19.50;99.90;;;;;;5111357;28;20006;-77
2022/07/29 03:43:05;;;;;;;;;;;19.60;99.90;;;;;;5111582;28;19914;-77
2022/07/29 03:45:31;;;;;;;;;;;19.60;99.90;;;;;;5111432;28;20337;-77
2022/07/29 03:47:59;;;;;;;;;;;19.50;99.90;;;;;;5111137;28;19914;-77
2022/07/29 03:50:25;;;;;;;;;;;19.40;99.90;;;;;;5111203;28;20002;-76
2022/07/29 03:52:51;;;;;;;;;;;19.40;99.90;;;;;;5111098;28;20010;-76
2022/07/29 03:55:16;;;;;;;;;;;19.40;99.90;;;;;;5111026;28;19919;-77
2022/07/29 03:57:44;;;;;;;;;;;19.40;99.90;;;;;;5110917;28;19908;-76
2022/07/29 04:00:10;;;;;;;;;;;19.50;99.90;;;;;;5111073;28;20267;-77
2022/07/29 04:02:36;;;;;;;;;;;19.40;99.90;;;;;;5111176;28;19908;-77
2022/07/29 04:05:02;;;;;;;;;;;19.40;99.90;;;;;;5110956;28;19923;-77
2022/07/29 04:07:28;;;;;;;;;;;19.30;99.90;;;;;;5110739;28;20378;-77
2022/07/29 04:09:54;;;;;;;;;;;19.30;99.90;;;;;;5111372;28;19981;-76
2022/07/29 04:12:20;;;;;;;;;;;19.40;99.90;;;;;;5110893;28;19915;-77
2022/07/29 04:14:46;;;;;;;;;;;19.30;99.90;;;;;;5110892;28;19966;-77
2022/07/29 04:17:12;;;;;;;;;;;19.30;99.90;;;;;;5110715;28;19912;-76
2022/07/29 04:19:37;;;;;;;;;;;19.30;99.90;;;;;;5110905;28;19915;-77
2022/07/29 04:22:03;;;;;;;;;;;19.40;99.90;;;;;;5110816;28;20375;-76
2022/07/29 04:24:28;;;;;;;;;;;19.40;99.90;;;;;;5110880;28;19908;-76
2022/07/29 04:26:54;;;;;;;;;;;19.40;99.90;;;;;;5110415;28;19965;-77
2022/07/29 04:29:20;;;;;;;;;;;19.40;99.90;;;;;;5110678;28;19908;-77
2022/07/29 04:31:45;;;;;;;;;;;19.40;99.90;;;;;;5110757;28;19912;-76
2022/07/29 04:34:12;;;;;;;;;;;19.40;99.90;;;;;;5113357;28;20370;-77
2022/07/29 04:36:37;;;;;;;;;;;19.30;99.90;;;;;;5114332;28;20346;-78
2022/07/29 04:39:03;;;;;;;;;;;19.20;99.90;;;;;;5114411;28;19951;-77
2022/07/29 04:41:28;;;;;;;;;;;19.10;99.90;;;;;;5114416;28;19908;-76
2022/07/29 04:43:54;;;;;;;;;;;19.10;99.90;;;;;;5114291;28;19915;-77
2022/07/29 04:46:20;;;;;;;;;;;19.20;99.90;;;;;;5114145;28;20438;-77
2022/07/29 04:48:46;;;;;;;;;;;19.30;99.90;;;;;;5114127;28;19938;-77
2022/07/29 04:51:12;;;;;;;;;;;19.40;99.90;;;;;;5114201;28;19907;-75
2022/07/29 04:53:37;;;;;;;;;;;19.50;99.90;;;;;;5114122;28;19923;-77
2022/07/29 04:56:03;;;;;;;;;;;19.50;99.90;;;;;;5113923;28;19907;-76
2022/07/29 04:58:29;;;;;;;;;;;19.50;99.90;;;;;;5113805;28;19954;-77
2022/07/29 05:00:54;;;;;;;;;;;19.50;99.90;;;;;;5114033;28;19908;-77
2022/07/29 05:03:20;;;;;;;;;;;19.60;99.90;;;;;;5113989;28;19915;-77
2022/07/29 05:05:45;;;;;;;;;;;19.70;99.90;;;;;;5113570;28;19916;-77
2022/07/29 05:08:11;;;;;;;;;;;19.60;99.90;;;;;;5113823;28;19908;-76
2022/07/29 05:10:37;;;;;;;;;;;19.70;99.90;;;;;;5113761;28;19934;-77
2022/07/29 05:13:06;;;;;;;;;;;19.70;99.90;;;;;;5113993;28;19968;-75
2022/07/29 05:15:32;;;;;;;;;;;19.70;99.90;;;;;;5113573;28;19911;-77
2022/07/29 05:17:58;;;;;;;;;;;19.80;99.90;;;;;;5113582;28;20010;-77
2022/07/29 05:20:27;;;;;;;;;;;19.80;99.90;;;;;;5113689;28;20378;-78
2022/07/29 05:22:54;;;;;;;;;;;19.90;99.90;;;;;;5113683;28;19908;-77
2022/07/29 05:25:20;;;;;;;;;;;19.90;99.90;;;;;;5113268;27;19911;-78
2022/07/29 05:27:45;;;;;;;;;;;20.00;99.90;;;;;;5113237;28;19915;-76
2022/07/29 05:30:11;;;;;;;;;;;20.00;99.90;;;;;;5113371;28;20363;-77
2022/07/29 05:32:37;;;;;;;;;;;20.00;99.90;;;;;;5113483;28;20053;-77
2022/07/29 05:35:02;;;;;;;;;;;20.10;99.90;;;;;;5113369;28;20294;-77
2022/07/29 05:37:28;;;;;;;;;;;20.10;99.90;;;;;;5112971;28;19915;-76
2022/07/29 05:39:53;;;;;;;;;;;20.10;99.90;;;;;;5113326;28;20003;-77
2022/07/29 05:42:19;;;;;;;;;;;20.20;99.90;;;;;;5113017;28;19907;-77
2022/07/29 05:44:45;;;;;;;;;;;20.20;99.90;;;;;;5109076;28;19912;-76
2022/07/29 05:47:11;;;;;;;;;;;20.30;99.90;;;;;;5112894;28;19957;-78
2022/07/29 05:49:36;;;;;;;;;;;20.40;99.90;;;;;;5092995;28;19912;-77
2022/07/29 05:52:02;;;;;;;;;;;20.50;99.90;;;;;;5108276;28;20008;-77
2022/07/29 05:54:28;;;;;;;;;;;20.60;99.90;;;;;;5113156;28;19908;-78
2022/07/29 05:56:54;;;;;;;;;;;20.70;99.90;;;;;;5112777;28;20367;-78
2022/07/29 05:59:19;;;;;;;;;;;20.70;99.90;;;;;;5112994;28;19915;-77
2022/07/29 06:01:45;;;;;;;;;;;20.70;99.90;;;;;;5113026;28;19908;-77
2022/07/29 06:04:10;;;;;;;;;;;20.80;99.90;;;;;;5112863;28;19907;-77
2022/07/29 06:06:36;;;;;;;;;;;20.90;99.90;;;;;;5112718;28;19938;-77
2022/07/29 06:09:02;;;;;;;;;;;20.90;99.90;;;;;;5112814;28;20359;-76
2022/07/29 06:11:28;;;;;;;;;;;20.90;99.90;;;;;;5112788;28;19908;-78
2022/07/29 06:13:53;;;;;;;;;;;20.90;99.90;;;;;;5112694;27;20280;-77
2022/07/29 06:16:19;;;;;;;;;;;20.90;99.90;;;;;;5112724;28;20008;-78
2022/07/29 06:18:45;;;;;;;;;;;20.80;99.90;;;;;;5112900;28;20302;-76
2022/07/29 06:21:10;;;;;;;;;;;20.80;99.90;;;;;;5112755;28;19914;-77
2022/07/29 06:23:37;;;;;;;;;;;20.70;99.90;;;;;;5112507;27;20420;-77
2022/07/29 06:26:02;;;;;;;;;;;20.70;99.90;;;;;;5112225;28;19962;-78
2022/07/29 06:28:28;;;;;;;;;;;20.70;99.90;;;;;;5112303;28;20363;-78
2022/07/29 06:30:54;;;;;;;;;;;20.70;99.90;;;;;;5112509;28;19915;-77
2022/07/29 06:33:19;;;;;;;;;;;20.70;99.90;;;;;;5112368;28;20370;-78
2022/07/29 06:35:47;;;;;;;;;;;20.70;99.90;;;;;;5112239;28;19908;-78
2022/07/29 06:38:13;;;;;;;;;;;20.70;99.90;;;;;;5112594;28;19998;-78
2022/07/29 06:41:01;;;;;;;;;;;20.70;99.90;;;;;;5112248;28;19915;-78
2022/07/29 06:43:33;;;;;;;;;;;20.80;99.90;;;;;;5112349;28;19908;-78
2022/07/29 06:46:02;;;;;;;;;;;20.70;99.90;;;;;;5111957;28;20026;-77
2022/07/29 06:48:28;;;;;;;;;;;20.70;99.90;;;;;;5112085;28;19914;-78
2022/07/29 06:50:54;;;;;;;;;;;20.60;99.90;;;;;;5112059;28;20003;-77
2022/07/29 06:53:20;;;;;;;;;;;20.50;99.90;;;;;;5112067;28;19908;-78
2022/07/29 06:55:46;;;;;;;;;;;20.30;99.90;;;;;;5111361;28;19959;-77
2022/07/29 06:58:11;;;;;;;;;;;20.00;99.90;;;;;;5112011;28;19951;-77
2022/07/29 07:00:37;;;;;;;;;;;19.90;99.90;;;;;;5111895;28;19908;-77
2022/07/29 07:03:03;;;;;;;;;;;19.70;99.90;;;;;;5111973;28;20331;-77
2022/07/29 07:05:28;;;;;;;;;;;19.40;99.90;;;;;;5111649;28;19915;-78
2022/07/29 07:07:54;;;;;;;;;;;19.30;99.90;;;;;;5111597;28;20492;-77
2022/07/29 07:10:20;;;;;;;;;;;19.20;99.90;;;;;;5111741;28;20007;-77
2022/07/29 07:12:45;;;;;;;;;;;19.30;99.90;;;;;;5111825;28;20456;-73
2022/07/29 07:15:11;;;;;;;;;;;19.30;99.90;;;;;;5112332;28;19969;-73
2022/07/29 07:17:37;;;;;;;;;;;19.40;99.90;;;;;;5111545;28;19927;-76
2022/07/29 07:20:04;;;;;;;;;;;19.40;99.90;;;;;;5111757;28;19911;-77
2022/07/29 07:22:30;;;;;;;;;;;19.50;99.90;;;;;;5111545;28;19908;-77
2022/07/29 07:24:56;;;;;;;;;;;19.60;99.90;;;;;;5103748;28;20272;-77
2022/07/29 07:27:21;;;;;;;;;;;19.60;99.90;;;;;;5106137;28;19916;-77
2022/07/29 07:29:47;;;;;;;;;;;19.70;99.90;;;;;;5111532;28;19907;-77
2022/07/29 07:32:13;;;;;;;;;;;19.70;99.90;;;;;;5111176;28;19908;-77
2022/07/29 07:34:38;;;;;;;;;;;19.70;99.90;;;;;;5111138;28;19994;-77
2022/07/29 07:37:04;;;;;;;;;;;19.80;99.90;;;;;;5111046;28;19951;-77
2022/07/29 07:39:30;;;;;;;;;;;19.90;99.90;;;;;;5111281;28;19949;-77
2022/07/29 07:41:55;;;;;;;;;;;19.80;99.90;;;;;;5111240;28;19955;-77
2022/07/29 07:44:21;;;;;;;;;;;19.90;99.90;;;;;;5107519;28;19927;-77
2022/07/29 07:46:47;;;;;;;;;;;19.90;99.90;;;;;;5090074;28;19912;-77
2022/07/29 07:49:12;;;;;;;;;;;20.00;99.90;;;;;;5089674;28;19909;-77
2022/07/29 07:51:38;;;;;;;;;;;20.00;99.90;;;;;;5090321;28;19949;-77
2022/07/29 07:54:04;;;;;;;;;;;20.00;99.90;;;;;;5090273;28;19956;-77
2022/07/29 07:56:29;;;;;;;;;;;20.10;99.90;;;;;;5090102;28;19915;-77
2022/07/29 07:58:55;;;;;;;;;;;20.20;99.90;;;;;;5104809;28;19912;-77
2022/07/29 08:01:22;;;;;;;;;;;20.30;99.90;;;;;;5110571;28;19908;-77
2022/07/29 08:03:48;;;;;;;;;;;20.30;99.90;;;;;;5110814;28;19914;-78
2022/07/29 08:06:14;;;;;;;;;;;20.30;99.90;;;;;;5110570;28;20307;-77
2022/07/29 08:08:40;;;;;;;;;;;20.20;99.90;;;;;;5112288;28;19908;-77
2022/07/29 08:11:06;;;;;;;;;;;20.10;99.90;;;;;;5132045;27;20002;-77
2022/07/29 08:13:31;;;;;;;;;;;20.00;99.90;;;;;;5135129;27;19916;-76
2022/07/29 08:15:58;;;;;;;;;;;20.10;99.90;;;;;;5130687;27;20406;-77
2022/07/29 08:18:24;;;;;;;;;;;20.10;99.90;;;;;;5111839;27;19908;-77
2022/07/29 08:20:50;;;;;;;;;;;20.00;99.90;;;;;;5122978;27;19908;-77
2022/07/29 08:23:16;;;;;;;;;;;20.00;99.90;;;;;;5123272;27;19960;-77
2022/07/29 08:25:41;;;;;;;;;;;20.00;99.90;;;;;;5118095;27;20290;-77
2022/07/29 08:28:07;;;;;;;;;;;20.00;99.90;;;;;;5118429;27;19915;-78
2022/07/29 08:30:33;;;;;;;;;;;20.00;99.90;;;;;;5126575;27;19940;-77
2022/07/29 08:32:59;;;;;;;;;;;20.00;99.90;;;;;;5119679;27;19914;-77
2022/07/29 08:35:24;;;;;;;;;;;20.20;99.90;;;;;;5114887;28;19911;-77
2022/07/29 08:37:51;;;;;;;;;;;20.20;99.90;;;;;;5114068;28;19915;-77
2022/07/29 08:40:16;;;;;;;;;;;20.30;99.90;;;;;;5114521;28;19911;-77
2022/07/29 08:42:42;;;;;;;;;;;20.40;99.90;;;;;;5114435;28;19914;-77
2022/07/29 08:45:08;;;;;;;;;;;20.40;99.90;;;;;;5114049;28;20002;-77
2022/07/29 08:47:36;;;;;;;;;;;20.50;99.90;;;;;;5113908;28;19972;-77
2022/07/29 08:50:02;;;;;;;;;;;20.60;99.90;;;;;;5113758;28;20034;-77
2022/07/29 08:52:29;;;;;;;;;;;20.80;99.90;;;;;;5114103;28;19998;-77
2022/07/29 08:54:55;;;;;;;;;;;20.80;99.90;;;;;;5114072;28;19908;-77
2022/07/29 08:57:21;;;;;;;;;;;20.90;99.90;;;;;;5113800;28;19973;-77
2022/07/29 08:59:50;;;;;;;;;;;21.00;99.90;;;;;;5114045;28;19954;-78
2022/07/29 09:02:19;;;;;;;;;;;21.20;99.90;;;;;;5113145;28;20356;-77
2022/07/29 09:04:45;;;;;;;;;;;21.10;99.90;;;;;;5114065;28;19915;-77
2022/07/29 09:07:14;;;;;;;;;;;21.20;99.90;;;;;;5113758;28;19911;-78
2022/07/29 09:09:39;;;;;;;;;;;21.30;99.90;;;;;;5113874;28;19915;-77
2022/07/29 09:12:07;;;;;;;;;;;21.30;99.90;;;;;;5113734;28;19908;-77
2022/07/29 09:14:33;;;;;;;;;;;21.30;99.90;;;;;;5113946;27;20358;-77
2022/07/29 09:16:59;;;;;;;;;;;21.30;99.90;;;;;;5113506;28;20026;-77
2022/07/29 09:19:29;;;;;;;;;;;21.40;99.90;;;;;;5096298;28;19912;-77
2022/07/29 09:21:59;;;;;;;;;;;21.40;99.90;;;;;;5113624;28;19996;-77
2022/07/29 09:24:25;;;;;;;;;;;21.40;99.90;;;;;;5113715;28;19911;-77
2022/07/29 09:26:51;;;;;;;;;;;21.50;99.90;;;;;;5113287;28;19915;-77
2022/07/29 09:29:18;;;;;;;;;;;21.70;99.90;;;;;;5113510;27;19915;-77
2022/07/29 09:31:44;;;;;;;;;;;21.70;99.90;;;;;;5113559;28;19908;-77
2022/07/29 09:34:10;;;;;;;;;;;21.90;99.90;;;;;;5113544;28;19907;-77
2022/07/29 09:36:39;;;;;;;;;;;22.10;99.90;;;;;;5113528;28;20386;-77
2022/07/29 09:39:05;;;;;;;;;;;22.40;99.90;;;;;;5113283;28;19908;-78
2022/07/29 09:41:43;;;;;;;;;;;23.40;99.90;;;;;;5113675;28;19908;-77
2022/07/29 09:44:09;;;;;;;;;;;24.60;99.90;;;;;;5113287;28;19931;-77
2022/07/29 09:46:35;;;;;;;;;;;25.60;99.90;;;;;;5113243;28;20367;-77
2022/07/29 09:49:08;;;;;;;;;;;25.90;99.90;;;;;;5113087;28;19908;-77
2022/07/29 09:51:34;;;;;;;;;;;26.10;99.90;;;;;;5113231;28;19961;-77
2022/07/29 09:54:03;;;;;;;;;;;26.20;99.90;;;;;;5113102;28;20321;-78
2022/07/29 09:56:38;;;;;;;;;;;26.20;99.90;;;;;;5112605;27;19914;-78
2022/07/29 09:59:08;;;;;;;;;;;26.00;99.90;;;;;;5113231;28;19914;-77
2022/07/29 10:01:34;;;;;;;;;;;25.50;99.90;;;;;;5113025;27;19949;-77
2022/07/29 10:04:00;;;;;;;;;;;25.10;99.90;;;;;;5112885;28;20300;-78
2022/07/29 10:06:25;;;;;;;;;;;25.00;99.90;;;;;;5112995;28;19961;-78
2022/07/29 10:08:52;;;;;;;;;;;24.80;99.90;;;;;;5112750;28;19915;-78
2022/07/29 10:11:18;;;;;;;;;;;24.60;99.90;;;;;;5112738;28;20364;-77
2022/07/29 10:13:44;;;;;;;;;;;24.50;99.90;;;;;;5113003;28;20069;-77
2022/07/29 10:16:10;;;;;;;;;;;24.40;99.90;;;;;;5112401;28;19908;-77
2022/07/29 10:18:39;;;;;;;;;;;24.20;99.90;;;;;;5112394;28;19912;-77
2022/07/29 10:21:05;;;;;;;;;;;24.10;99.90;;;;;;5109064;28;20398;-77
2022/07/29 10:23:31;;;;;;;;;;;24.10;99.90;;;;;;5098117;28;19912;-77
2022/07/29 10:25:57;;;;;;;;;;;24.20;99.90;;;;;;5111551;28;20386;-78
2022/07/29 10:28:23;;;;;;;;;;;24.20;99.90;;;;;;5112028;28;19907;-78
2022/07/29 10:30:50;;;;;;;;;;;24.10;99.90;;;;;;5111346;28;19911;-77
2022/07/29 10:33:42;;;;;;;;;;;24.20;99.90;;;;;;5111913;27;20364;-77
2022/07/29 10:36:28;;;;;;;;;;;24.50;99.90;;;;;;5087921;28;20316;-78
2022/07/29 10:39:05;;;;;;;;;;;24.90;99.90;;;;;;5101076;28;19947;-78
2022/07/29 10:41:39;;;;;;;;;;;25.40;99.90;;;;;;5111959;28;19911;-78
2022/07/29 10:44:07;;;;;;;;;;;25.50;99.90;;;;;;5111775;28;19907;-78
2022/07/29 10:46:36;;;;;;;;;;;26.90;99.90;;;;;;5111060;28;20251;-77
2022/07/29 10:49:06;;;;;;;;;;;28.30;99.90;;;;;;5111563;28;20367;-78
2022/07/29 10:51:50;;;;;;;;;;;28.90;99.90;;;;;;5111601;28;19915;-77
2022/07/29 10:54:19;;;;;;;;;;;30.50;99.90;;;;;;5111693;28;20010;-78
2022/07/29 10:56:44;;;;;;;;;;;30.60;97.80;;;;;;5111266;28;19908;-77
2022/07/29 10:59:31;;;;;;;;;;;30.40;95.30;;;;;;5111163;28;19972;-77
2022/07/29 11:01:56;;;;;;;;;;;30.30;95.00;;;;;;5111214;28;19930;-77
2022/07/29 11:04:41;;;;;;;;;;;29.50;94.70;;;;;;5111374;28;19951;-77
2022/07/29 11:07:07;;;;;;;;;;;28.90;93.00;;;;;;5111094;27;19912;-76
2022/07/29 11:09:33;;;;;;;;;;;28.30;95.60;;;;;;5111060;28;19912;-77
2022/07/29 11:11:59;;;;;;;;;;;27.90;96.60;;;;;;5111377;28;20321;-77
2022/07/29 11:14:43;;;;;;;;;;;27.70;97.10;;;;;;5111445;28;19912;-77
2022/07/29 11:17:09;;;;;;;;;;;27.50;96.80;;;;;;5111040;28;19908;-77
2022/07/29 11:19:36;;;;;;;;;;;27.20;96.90;;;;;;5111308;28;19973;-78
2022/07/29 11:22:01;;;;;;;;;;;27.40;96.50;;;;;;5110584;28;19933;-77
2022/07/29 11:24:31;;;;;;;;;;;27.50;96.10;;;;;;5111357;28;20398;-77
2022/07/29 11:27:17;;;;;;;;;;;27.50;95.50;;;;;;5110722;28;20397;-77
2022/07/29 11:29:50;;;;;;;;;;;27.70;96.00;;;;;;5111253;28;19908;-78
2022/07/29 11:32:19;;;;;;;;;;;27.60;95.80;;;;;;5110788;28;19962;-77
2022/07/29 11:34:46;;;;;;;;;;;27.60;94.60;;;;;;5110916;28;19915;-78
2022/07/29 11:37:14;;;;;;;;;;;27.60;94.70;;;;;;5110684;28;19964;-78
2022/07/29 11:39:52;;;;;;;;;;;27.30;95.70;;;;;;5111042;28;19908;-78
2022/07/29 11:42:24;;;;;;;;;;;27.40;97.10;;;;;;5112296;28;20015;-76
2022/07/29 11:45:06;;;;;;;;;;;27.20;95.90;;;;;;5115309;28;20259;-77
2022/07/29 11:47:52;;;;;;;;;;;27.00;96.00;;;;;;5114591;28;19938;-78
2022/07/29 11:50:27;;;;;;;;;;;27.00;95.60;;;;;;5114642;28;19908;-78
2022/07/29 11:52:52;;;;;;;;;;;27.20;95.30;;;;;;5115122;28;19951;-77
2022/07/29 11:55:19;;;;;;;;;;;27.10;95.50;;;;;;5112526;28;20399;-77
2022/07/29 11:57:47;;;;;;;;;;;27.20;96.20;;;;;;5108950;28;19912;-77
2022/07/29 12:00:20;;;;;;;;;;;26.80;94.30;;;;;;5108132;28;20315;-78
2022/07/29 12:02:45;;;;;;;;;;;27.00;93.30;;;;;;5114614;28;19920;-77
2022/07/29 12:05:11;;;;;;;;;;;26.90;93.30;;;;;;5111424;28;19964;-77
2022/07/29 12:07:37;;;;;;;;;;;26.90;94.80;;;;;;5114140;28;19976;-77
2022/07/29 12:10:04;;;;;;;;;;;26.90;93.10;;;;;;5115007;28;19912;-77
2022/07/29 12:12:30;;;;;;;;;;;26.70;93.10;;;;;;5110348;28;19930;-77
2022/07/29 12:14:55;;;;;;;;;;;26.80;93.60;;;;;;5107636;28;20449;-78
2022/07/29 12:17:39;;;;;;;;;;;27.10;93.60;;;;;;5114391;28;19914;-78
2022/07/29 12:20:05;;;;;;;;;;;27.40;92.70;;;;;;5114625;28;19957;-77
2022/07/29 12:22:32;;;;;;;;;;;27.40;91.80;;;;;;5114433;28;19912;-77
2022/07/29 12:25:02;;;;;;;;;;;27.60;92.00;;;;;;5114628;28;19998;-78
2022/07/29 12:27:28;;;;;;;;;;;27.70;91.60;;;;;;5114354;28;19916;-77
2022/07/29 12:29:59;;;;;;;;;;;28.10;92.10;;;;;;5114694;28;19908;-78
2022/07/29 12:32:31;;;;;;;;;;;28.00;90.40;;;;;;5114513;28;19914;-77
2022/07/29 12:34:56;;;;;;;;;;;28.00;91.30;;;;;;5114294;28;19912;-78
2022/07/29 12:37:22;;;;;;;;;;;28.40;87.90;;;;;;5113851;28;19934;-77
2022/07/29 12:39:49;;;;;;;;;;;28.00;87.50;;;;;;5109591;28;19908;-78
2022/07/29 12:42:15;;;;;;;;;;;27.60;88.00;;;;;;5114135;28;19908;-77
2022/07/29 12:44:47;;;;;;;;;;;27.30;88.60;;;;;;5113899;28;19908;-78
2022/07/29 12:47:13;;;;;;;;;;;27.50;90.50;;;;;;5113300;28;20359;-77
2022/07/29 12:49:39;;;;;;;;;;;27.80;92.00;;;;;;5106255;28;19961;-77
2022/07/29 12:52:37;;;;;;;;;;;28.00;91.30;;;;;;5114649;28;19915;-78
2022/07/29 12:55:03;;;;;;;;;;;27.90;92.80;;;;;;5068895;28;19908;-77
2022/07/29 12:57:29;;;;;;;;;;;27.90;94.40;;;;;;5113698;28;20048;-77
2022/07/29 13:00:07;;;;;;;;;;;27.70;93.60;;;;;;5113920;28;19973;-77
2022/07/29 13:02:33;;;;;;;;;;;27.80;95.00;;;;;;5113863;28;19967;-77
2022/07/29 13:04:59;;;;;;;;;;;27.90;94.20;;;;;;5113982;28;20389;-77
2022/07/29 13:07:26;;;;;;;;;;;27.60;94.80;;;;;;5113596;28;19970;-77
2022/07/29 13:09:52;;;;;;;;;;;27.60;94.50;;;;;;5113966;28;19908;-77
2022/07/29 13:12:18;;;;;;;;;;;27.50;94.60;;;;;;5113614;28;19915;-78
2022/07/29 13:14:47;;;;;;;;;;;27.60;94.40;;;;;;5113804;28;20385;-77
2022/07/29 13:17:15;;;;;;;;;;;27.90;94.10;;;;;;5113531;28;19915;-78
2022/07/29 13:19:41;;;;;;;;;;;28.00;93.90;;;;;;5113629;28;19947;-77
2022/07/29 13:22:11;;;;;;;;;;;28.10;94.70;;;;;;5113551;28;19961;-77
2022/07/29 13:24:50;;;;;;;;;;;28.00;93.90;;;;;;5113295;28;19911;-77
2022/07/29 13:27:16;;;;;;;;;;;28.20;93.80;;;;;;5113292;28;19926;-78
2022/07/29 13:29:41;;;;;;;;;;;28.20;92.80;;;;;;5113409;28;20271;-78
2022/07/29 13:32:07;;;;;;;;;;;28.40;93.50;;;;;;5113468;28;19914;-78
2022/07/29 13:34:33;;;;;;;;;;;28.40;91.60;;;;;;5113770;28;19914;-77
2022/07/29 13:37:01;;;;;;;;;;;28.50;91.30;;;;;;5112772;28;19908;-77
2022/07/29 13:39:27;;;;;;;;;;;28.40;90.90;;;;;;5113580;28;19908;-78
2022/07/29 13:41:53;;;;;;;;;;;28.50;90.10;;;;;;5113517;28;20367;-77
2022/07/29 13:44:21;;;;;;;;;;;28.70;90.10;;;;;;5113430;28;19907;-77
2022/07/29 13:46:47;;;;;;;;;;;28.60;90.50;;;;;;5112734;28;19945;-77
2022/07/29 13:49:13;;;;;;;;;;;28.60;91.10;;;;;;5112791;28;20290;-77
2022/07/29 13:51:39;;;;;;;;;;;28.50;91.20;;;;;;5112778;28;19980;-77
2022/07/29 13:54:04;;;;;;;;;;;28.50;90.80;;;;;;5112845;28;19907;-77
2022/07/29 13:56:30;;;;;;;;;;;28.40;91.40;;;;;;5112669;28;19908;-77
2022/07/29 13:58:56;;;;;;;;;;;28.50;91.00;;;;;;5112690;28;20010;-77
2022/07/29 14:01:23;;;;;;;;;;;28.40;91.20;;;;;;5112435;28;19907;-77
2022/07/29 14:03:48;;;;;;;;;;;28.00;90.90;;;;;;5112579;28;20286;-77
2022/07/29 14:06:14;;;;;;;;;;;27.90;91.90;;;;;;5111063;28;19912;-77
2022/07/29 14:08:40;;;;;;;;;;;28.10;91.80;;;;;;5112880;28;19938;-78
2022/07/29 14:11:05;;;;;;;;;;;28.10;91.00;;;;;;5112530;28;20374;-77
2022/07/29 14:13:31;;;;;;;;;;;28.00;90.80;;;;;;5112310;28;19914;-78
2022/07/29 14:15:57;;;;;;;;;;;27.80;90.90;;;;;;5112166;28;20397;-77
2022/07/29 14:18:22;;;;;;;;;;;27.90;90.90;;;;;;5112433;28;19961;-77
2022/07/29 14:20:48;;;;;;;;;;;28.00;90.00;;;;;;5112204;28;19976;-77